Time;durP1;ratioP1;P1;durP2;ratioP2;P2;SDS_P1;SDS_P2;PMS_P1;PMS_P2;Temp;Humidity;BMP_temperature;BMP_pressure;BME280_temperature;BME280_humidity;BME280_pressure;Samples;Min_cycle;Max_cycle;Signal;HPM_P1;HPM_P2
2022/11/02 05:30:42;;;;;;;7.97;1.45;;;11.10;81.30;;;;;;5889176;23;20796;-81
2022/11/02 05:33:07;;;;;;;7.63;2.10;;;11.10;81.40;;;;;;4995584;28;20432;-81
2022/11/02 05:35:33;;;;;;;10.23;2.92;;;11.00;81.40;;;;;;4984667;28;20027;-82
2022/11/02 05:37:59;;;;;;;7.50;1.90;;;11.00;81.60;;;;;;4976027;28;20445;-82
2022/11/02 05:40:24;;;;;;;12.52;1.90;;;11.00;81.60;;;;;;4967882;28;20098;-82
2022/11/02 05:42:50;;;;;;;8.20;1.80;;;11.00;81.50;;;;;;4976454;28;20030;-82
2022/11/02 05:45:16;;;;;;;9.75;1.90;;;10.90;81.60;;;;;;4976206;28;20030;-81
2022/11/02 05:48:05;;;;;;;10.88;2.40;;;10.90;81.80;;;;;;4976859;28;20023;-84
2022/11/02 05:50:31;;;;;;;5.00;1.55;;;10.80;82.00;;;;;;4976328;28;20416;-84
2022/11/02 05:52:56;;;;;;;11.23;2.28;;;10.80;82.30;;;;;;4975985;28;20030;-81
2022/11/02 05:55:22;;;;;;;9.95;2.17;;;10.80;82.20;;;;;;4959204;28;20026;-82
2022/11/02 05:57:52;;;;;;;10.27;1.90;;;10.80;82.10;;;;;;4995124;28;20041;-82
2022/11/02 06:00:19;;;;;;;10.20;2.13;;;10.80;82.10;;;;;;4979441;28;20068;-90
2022/11/02 06:02:45;;;;;;;9.10;2.35;;;10.80;82.20;;;;;;4979063;28;20125;-88
2022/11/02 06:05:10;;;;;;;4.20;1.38;;;10.90;81.90;;;;;;4983845;28;20064;-88
2022/11/02 06:07:36;;;;;;;6.68;1.63;;;10.90;81.80;;;;;;4993490;28;20030;-89
2022/11/02 06:10:02;;;;;;;12.77;1.83;;;10.90;81.70;;;;;;4973848;28;20035;-90
2022/11/02 06:12:27;;;;;;;16.88;2.28;;;10.90;81.70;;;;;;4983895;28;20030;-88
2022/11/02 06:14:53;;;;;;;3.58;1.63;;;10.90;81.80;;;;;;5006769;28;20266;-88
2022/11/02 06:17:19;;;;;;;8.20;1.63;;;10.90;81.70;;;;;;5007888;28;20029;-86
2022/11/02 06:19:44;;;;;;;10.52;2.58;;;10.90;81.80;;;;;;4997862;28;20093;-89
2022/11/02 06:22:10;;;;;;;7.03;1.90;;;10.80;81.60;;;;;;4980085;28;20100;-88
2022/11/02 06:24:35;;;;;;;6.68;1.98;;;10.80;81.80;;;;;;4990978;28;20031;-88
2022/11/02 06:27:01;;;;;;;12.00;1.98;;;10.70;81.40;;;;;;4995815;28;20457;-88
2022/11/02 06:29:27;;;;;;;8.10;2.42;;;10.70;81.90;;;;;;4985293;28;20069;-89
2022/11/02 06:31:53;;;;;;;9.32;2.22;;;10.70;81.80;;;;;;4978835;28;20465;-86
2022/11/02 06:34:18;;;;;;;8.55;1.67;;;10.70;82.10;;;;;;4972681;28;20128;-85
2022/11/02 06:36:44;;;;;;;10.15;2.25;;;10.70;81.80;;;;;;4998625;28;20072;-84
2022/11/02 06:39:12;;;;;;;10.73;2.15;;;10.60;81.70;;;;;;4996454;28;20042;-84
2022/11/02 06:41:37;;;;;;;9.35;2.30;;;10.60;82.10;;;;;;4994683;28;20030;-83
2022/11/02 06:44:03;;;;;;;6.38;2.03;;;10.50;81.90;;;;;;4992321;28;20041;-83
2022/11/02 06:46:29;;;;;;;6.32;2.30;;;10.40;82.20;;;;;;4975781;28;20097;-83
2022/11/02 06:48:54;;;;;;;8.77;2.13;;;10.50;82.30;;;;;;4972986;28;20121;-81
2022/11/02 06:51:20;;;;;;;8.93;2.72;;;10.50;82.30;;;;;;4993611;28;20022;-81
2022/11/02 06:53:46;;;;;;;10.30;2.15;;;10.60;82.20;;;;;;4977420;28;20034;-80
2022/11/02 06:56:17;;;;;;;7.07;2.55;;;10.70;82.10;;;;;;4988158;28;20097;-81
2022/11/02 06:58:42;;;;;;;11.85;2.35;;;10.70;81.80;;;;;;4980788;28;20489;-83
2022/11/02 07:01:09;;;;;;;7.57;1.88;;;10.50;81.80;;;;;;4994920;28;20027;-88
2022/11/02 07:03:35;;;;;;;7.78;2.22;;;10.40;81.80;;;;;;4979349;28;20544;-82
2022/11/02 07:06:01;;;;;;;12.88;2.88;;;10.40;81.90;;;;;;4988487;28;20030;-83
2022/11/02 07:08:28;;;;;;;9.40;2.25;;;10.30;82.30;;;;;;4987720;28;20030;-82
2022/11/02 07:10:54;;;;;;;11.30;2.25;;;10.30;82.30;;;;;;4984895;28;21065;-82
2022/11/02 07:13:20;;;;;;;5.15;2.05;;;10.40;82.00;;;;;;5001340;28;20030;-87
2022/11/02 07:15:46;;;;;;;8.55;2.17;;;10.40;82.50;;;;;;5001817;28;20014;-87
2022/11/02 07:18:12;;;;;;;9.05;2.58;;;10.50;82.20;;;;;;4999276;28;21173;-85
2022/11/02 07:20:38;;;;;;;13.13;2.65;;;10.50;81.80;;;;;;4988947;28;20022;-88
2022/11/02 07:23:04;;;;;;;13.50;2.22;;;10.50;81.80;;;;;;4986191;28;20042;-87
2022/11/02 07:25:31;;;;;;;9.80;2.50;;;10.60;82.20;;;;;;5003960;28;20493;-85
2022/11/02 07:28:01;;;;;;;11.80;2.72;;;10.60;81.80;;;;;;4982857;28;20030;-86
2022/11/02 07:30:32;;;;;;;8.45;1.98;;;10.70;81.60;;;;;;4986053;28;20034;-85
2022/11/02 07:32:57;;;;;;;;;;;10.70;81.50;;;;;;4987909;28;20030;-83
2022/11/02 07:35:23;;;;;;;11.38;1.90;;;10.70;81.50;;;;;;5000719;28;19953;-84
2022/11/02 07:38:00;;;;;;;9.40;2.80;;;10.80;81.40;;;;;;4993005;28;20060;-86
2022/11/02 07:40:27;;;;;;;11.07;2.40;;;10.80;81.40;;;;;;4982170;28;20401;-85
2022/11/02 07:42:52;;;;;;;11.40;2.35;;;10.80;81.30;;;;;;4979045;28;20437;-94
2022/11/02 07:45:22;;;;;;;11.52;3.78;;;10.90;81.10;;;;;;4981401;28;20038;-93
2022/11/02 07:47:48;;;;;;;7.55;2.30;;;10.90;80.90;;;;;;4982837;28;20033;-90
2022/11/02 07:50:17;;;;;;;11.38;2.38;;;11.00;80.80;;;;;;4991573;28;20062;-90
2022/11/02 07:52:46;;;;;;;7.70;1.95;;;11.10;80.70;;;;;;4978286;28;20019;-88
2022/11/02 07:55:13;;;;;;;7.55;2.53;;;11.10;80.70;;;;;;4989198;28;20030;-89
2022/11/02 07:57:39;;;;;;;14.02;2.83;;;11.20;80.80;;;;;;4992210;28;20025;-87
2022/11/02 08:00:06;;;;;;;13.00;2.38;;;11.20;81.00;;;;;;4982905;28;20072;-91
2022/11/02 08:02:31;;;;;;;8.88;2.03;;;11.30;80.70;;;;;;5003653;28;20026;-87
2022/11/02 08:04:57;;;;;;;14.60;2.38;;;11.30;80.70;;;;;;5002322;28;20105;-93
2022/11/02 08:07:24;;;;;;;12.80;2.53;;;11.30;80.60;;;;;;4979434;28;20065;-85
2022/11/02 08:09:49;;;;;;;13.07;3.13;;;11.30;80.70;;;;;;4972854;28;20433;-87
2022/11/02 08:12:15;;;;;;;13.90;2.80;;;11.40;80.80;;;;;;5015432;28;20033;-84
2022/11/02 08:14:41;;;;;;;13.07;2.50;;;11.40;80.70;;;;;;5000832;28;20027;-84
2022/11/02 08:17:07;;;;;;;10.80;2.78;;;11.40;80.90;;;;;;4972139;28;20061;-87
2022/11/02 08:19:33;;;;;;;16.02;2.63;;;11.50;81.00;;;;;;4978338;28;20029;-87
2022/11/02 08:21:58;;;;;;;10.73;2.38;;;11.50;81.00;;;;;;4976732;28;20099;-91
2022/11/02 08:24:24;;;;;;;9.60;2.40;;;11.60;80.90;;;;;;4977102;28;20046;-81
2022/11/02 08:26:50;;;;;;;10.50;2.15;;;11.70;80.80;;;;;;4977684;28;20022;-89
2022/11/02 08:29:15;;;;;;;7.00;2.17;;;11.70;81.10;;;;;;4960087;28;20037;-84
2022/11/02 08:31:41;;;;;;;6.38;2.30;;;11.70;81.20;;;;;;4960518;28;20049;-90
2022/11/02 08:34:07;;;;;;;8.50;2.53;;;11.70;81.20;;;;;;4960663;28;20037;-90
2022/11/02 08:36:35;;;;;;;7.03;1.77;;;11.80;81.30;;;;;;4960193;28;20054;-83
2022/11/02 08:39:01;;;;;;;8.27;2.10;;;11.80;81.50;;;;;;4975334;28;20035;-82
2022/11/02 08:41:26;;;;;;;8.18;2.03;;;11.80;81.60;;;;;;4976274;28;20027;-82
2022/11/02 08:43:52;;;;;;;13.07;2.28;;;11.90;81.60;;;;;;4976156;28;20035;-82
2022/11/02 08:46:18;;;;;;;16.58;2.35;;;11.90;81.90;;;;;;4976753;28;20022;-81
2022/11/02 08:48:44;;;;;;;6.55;1.77;;;12.00;81.80;;;;;;4968796;28;20038;-81
2022/11/02 08:51:09;;;;;;;8.95;2.00;;;12.00;81.80;;;;;;4980016;28;20035;-81
2022/11/02 08:53:35;;;;;;;13.52;2.28;;;12.10;81.80;;;;;;4990570;28;20091;-81
2022/11/02 08:56:01;;;;;;;7.60;1.90;;;12.10;82.00;;;;;;4996342;28;20581;-81
2022/11/02 08:58:26;;;;;;;8.23;2.25;;;12.20;81.80;;;;;;4978199;28;20643;-81
2022/11/02 09:00:53;;;;;;;10.45;1.65;;;12.30;81.70;;;;;;4995320;28;20037;-81
2022/11/02 09:03:19;;;;;;;9.02;2.03;;;12.30;82.00;;;;;;4966096;28;20038;-81
2022/11/02 09:05:46;;;;;;;16.15;2.55;;;12.30;82.00;;;;;;4996499;28;20025;-81
2022/11/02 09:08:15;;;;;;;16.15;3.75;;;12.40;82.00;;;;;;4985199;28;20449;-82
2022/11/02 09:10:41;;;;;;;11.35;2.03;;;12.40;82.00;;;;;;5001153;28;20073;-86
2022/11/02 09:13:10;;;;;;;11.63;2.03;;;12.50;82.00;;;;;;4996076;28;20441;-83
2022/11/02 09:15:37;;;;;;;9.65;3.03;;;12.60;81.90;;;;;;4997771;28;20060;-80
2022/11/02 09:18:04;;;;;;;13.85;2.33;;;12.60;82.00;;;;;;4995101;28;20067;-81
2022/11/02 09:20:30;;;;;;;8.57;2.08;;;12.70;82.00;;;;;;4993467;28;20029;-82
2022/11/02 09:22:56;;;;;;;7.80;2.17;;;12.80;82.20;;;;;;4996169;28;20112;-81
2022/11/02 09:25:22;;;;;;;10.55;1.65;;;12.80;81.80;;;;;;4993471;28;20022;-82
2022/11/02 09:27:53;;;;;;;9.82;1.80;;;12.80;82.10;;;;;;4990592;28;20042;-81
2022/11/02 09:30:20;;;;;;;8.60;1.90;;;12.90;82.10;;;;;;4991897;28;20027;-80
2022/11/02 09:32:56;;;;;;;10.07;1.90;;;12.90;81.80;;;;;;4975942;28;20043;-80
2022/11/02 09:35:23;;;;;;;9.13;2.33;;;13.00;81.70;;;;;;4975261;28;20026;-82
2022/11/02 09:37:49;;;;;;;9.70;2.17;;;13.00;81.70;;;;;;4992733;28;20023;-80
2022/11/02 09:40:23;;;;;;;12.63;2.10;;;13.10;81.70;;;;;;4994386;28;20057;-81
2022/11/02 09:42:53;;;;;;;11.55;1.88;;;13.20;81.70;;;;;;4993435;28;20030;-80
2022/11/02 09:45:20;;;;;;;14.98;2.97;;;13.20;82.10;;;;;;4993362;28;20469;-82
2022/11/02 09:47:56;;;;;;;15.90;3.88;;;13.30;81.60;;;;;;4978223;28;20035;-79
2022/11/02 09:50:24;;;;;;;16.63;4.07;;;13.40;81.50;;;;;;4995277;28;20094;-84
2022/11/02 09:52:57;;;;;;;16.27;5.03;;;13.50;81.50;;;;;;4974007;28;20031;-79
2022/11/02 09:55:29;;;;;;;11.45;3.40;;;13.60;81.40;;;;;;4976833;28;20031;-80
2022/11/02 09:58:17;;;;;;;14.60;3.22;;;13.70;80.90;;;;;;4959295;28;20034;-84
2022/11/02 10:00:48;;;;;;;14.52;3.92;;;13.80;80.80;;;;;;4990237;28;20818;-80
2022/11/02 10:03:17;;;;;;;13.85;3.45;;;14.00;81.10;;;;;;4998572;28;20026;-77
2022/11/02 10:06:12;;;;;;;14.38;2.40;;;14.10;80.60;;;;;;4999245;28;20027;-79
2022/11/02 10:09:03;;;;;;;17.17;2.90;;;14.10;80.30;;;;;;4973601;28;20050;-88
2022/11/02 10:11:33;;;;;;;;;;;14.20;80.40;;;;;;4998433;28;20028;-86
2022/11/02 10:14:11;;;;;;;7.88;2.38;;;14.30;80.10;;;;;;5011364;28;19909;-79
2022/11/02 10:16:44;;;;;;;9.95;2.42;;;14.40;80.00;;;;;;4981585;28;20058;-79
2022/11/02 10:19:14;;;;;;;12.48;2.40;;;14.40;80.20;;;;;;4963256;28;20041;-78
2022/11/02 10:21:45;;;;;;;5.75;1.98;;;14.50;79.80;;;;;;4983385;28;20038;-78
2022/11/02 10:24:37;;;;;;;6.72;1.73;;;14.50;80.10;;;;;;4978426;28;20026;-77
2022/11/02 10:27:14;;;;;;;13.50;2.45;;;14.60;80.30;;;;;;4979621;28;20608;-80
2022/11/02 10:29:45;;;;;;;10.00;1.85;;;14.60;80.40;;;;;;4980085;28;20046;-81
2022/11/02 10:32:12;;;;;;;9.98;1.60;;;14.60;80.60;;;;;;4984431;28;20058;-79
2022/11/02 10:34:40;;;;;;;11.38;1.95;;;14.70;80.50;;;;;;4998103;28;20061;-80
2022/11/02 10:37:26;;;;;;;11.90;2.08;;;14.70;80.40;;;;;;4980668;28;20090;-79
2022/11/02 10:40:24;;;;;;;16.08;3.15;;;14.70;80.10;;;;;;4999420;28;20018;-88
2022/11/02 10:43:20;;;;;;;11.43;1.77;;;14.60;80.10;;;;;;4991568;28;20117;-80
2022/11/02 10:46:22;;;;;;;15.73;2.90;;;14.70;80.10;;;;;;4990292;28;20031;-83
2022/11/02 10:49:03;;;;;;;7.18;1.80;;;14.80;79.80;;;;;;4998944;28;20022;-85
2022/11/02 10:51:29;;;;;;;5.70;1.40;;;14.80;79.90;;;;;;4998868;28;20026;-78
2022/11/02 10:53:55;;;;;;;8.00;1.80;;;14.90;79.60;;;;;;4979422;28;20528;-81
2022/11/02 10:57:08;;;;;;;7.80;2.13;;;15.00;79.40;;;;;;4985291;28;20064;-88
2022/11/02 10:59:34;;;;;;;13.90;1.38;;;15.00;79.50;;;;;;4951981;28;20047;-85
2022/11/02 11:02:03;;;;;;;6.25;1.52;;;15.10;79.20;;;;;;4986982;28;20026;-86
2022/11/02 11:04:30;;;;;;;11.85;1.67;;;15.20;79.30;;;;;;4994740;28;20031;-84
2022/11/02 11:07:02;;;;;;;11.20;2.00;;;15.30;78.80;;;;;;4993669;28;20019;-85
2022/11/02 11:09:48;;;;;;;9.25;1.65;;;15.50;78.40;;;;;;4997203;28;20049;-84
2022/11/02 11:12:30;;;;;;;12.15;1.98;;;15.50;78.20;;;;;;5000885;28;20118;-90
2022/11/02 11:15:01;;;;;;;12.07;2.55;;;15.50;78.50;;;;;;4977389;28;20030;-88
2022/11/02 11:17:35;;;;;;;9.73;1.77;;;15.50;78.40;;;;;;4975742;28;20034;-90
2022/11/02 11:20:03;;;;;;;10.80;1.95;;;15.50;78.50;;;;;;4976200;28;20038;-77
2022/11/02 11:22:36;;;;;;;13.93;2.40;;;15.30;78.40;;;;;;4985926;28;20026;-82
2022/11/02 11:25:22;;;;;;;10.93;2.50;;;15.40;78.70;;;;;;4995640;28;20065;-85
2022/11/02 11:27:53;;;;;;;9.57;1.67;;;15.50;78.80;;;;;;4995540;28;20058;-80
2022/11/02 11:30:26;;;;;;;13.25;2.00;;;15.50;78.50;;;;;;4982790;28;20179;-82
2022/11/02 11:32:53;;;;;;;10.48;2.20;;;15.60;78.30;;;;;;4997267;28;20074;-78
2022/11/02 11:35:19;;;;;;;11.77;1.63;;;15.60;77.80;;;;;;4993999;28;20073;-80
2022/11/02 11:37:53;;;;;;;8.80;1.70;;;15.70;77.70;;;;;;4979641;28;20054;-78
2022/11/02 11:40:21;;;;;;;14.93;2.25;;;15.80;77.60;;;;;;4962803;28;20467;-83
2022/11/02 11:42:50;;;;;;;7.32;1.60;;;15.80;77.70;;;;;;4961247;28;20027;-80
2022/11/02 11:45:28;;;;;;;11.32;3.03;;;15.90;77.30;;;;;;4978664;28;20030;-81
2022/11/02 11:48:00;;;;;;;5.97;2.08;;;15.90;76.80;;;;;;4976157;28;20073;-79
2022/11/02 11:50:26;;;;;;;7.00;1.50;;;16.00;76.70;;;;;;4997555;28;20034;-82
2022/11/02 11:53:18;;;;;;;5.78;1.45;;;16.00;76.10;;;;;;4980619;28;20113;-81
2022/11/02 11:55:59;;;;;;;7.15;1.10;;;16.10;76.20;;;;;;4988510;28;20033;-80
2022/11/02 11:58:31;;;;;;;6.85;2.20;;;16.20;76.40;;;;;;4990824;28;20030;-81
2022/11/02 12:01:15;;;;;;;9.00;1.65;;;16.00;75.70;;;;;;4976314;28;20033;-83
2022/11/02 12:04:00;;;;;;;14.40;1.85;;;16.10;76.20;;;;;;4984362;28;20026;-83
2022/11/02 12:06:29;;;;;;;8.15;2.00;;;16.10;76.10;;;;;;4997923;28;20065;-75
2022/11/02 12:09:15;;;;;;;9.05;1.30;;;16.30;76.10;;;;;;4997604;28;20062;-82
2022/11/02 12:11:50;;;;;;;10.05;1.75;;;16.40;76.40;;;;;;4994872;28;20102;-82
2022/11/02 12:14:30;;;;;;;6.97;1.48;;;16.40;74.80;;;;;;4995308;28;20033;-80
2022/11/02 12:17:13;;;;;;;14.35;2.20;;;16.60;75.00;;;;;;4976238;28;20031;-82
2022/11/02 12:20:13;;;;;;;7.63;1.30;;;16.60;74.60;;;;;;4961028;28;20061;-89
2022/11/02 12:23:13;;;;;;;12.52;1.90;;;16.50;74.60;;;;;;4991419;28;20026;-88
2022/11/02 12:25:38;;;;;;;9.63;1.95;;;16.50;74.70;;;;;;4974528;28;20031;-93
2022/11/02 12:28:08;;;;;;;11.70;1.73;;;16.70;74.70;;;;;;4972463;28;20038;-92
2022/11/02 12:30:52;;;;;;;13.43;2.33;;;16.70;74.70;;;;;;4978595;28;20038;-89
2022/11/02 12:33:30;;;;;;;6.53;1.90;;;16.70;74.40;;;;;;4984562;28;20030;-91
2022/11/02 12:36:05;;;;;;;12.45;1.85;;;16.60;74.10;;;;;;4977687;28;20665;-87
2022/11/02 12:38:52;;;;;;;6.55;1.38;;;16.50;74.70;;;;;;4978280;28;20018;-88
2022/11/02 12:41:38;;;;;;;5.78;2.00;;;16.30;74.70;;;;;;4979039;28;20035;-86
2022/11/02 12:44:32;;;;;;;6.20;1.88;;;16.30;75.10;;;;;;4997883;28;20027;-88
2022/11/02 12:47:01;;;;;;;11.27;1.77;;;16.20;76.60;;;;;;4978985;28;20570;-93
2022/11/02 12:49:33;;;;;;;11.93;1.70;;;16.20;77.30;;;;;;4985768;28;20027;-90
2022/11/02 12:52:35;;;;;;;13.57;1.90;;;16.20;77.90;;;;;;4987851;28;20030;-89
2022/11/02 12:55:04;;;;;;;8.18;1.60;;;16.00;78.40;;;;;;4980296;28;20030;-87
2022/11/02 12:57:35;;;;;;;9.88;1.55;;;16.00;78.70;;;;;;4976987;28;20504;-90
2022/11/02 13:00:05;;;;;;;15.52;1.83;;;15.90;79.20;;;;;;4999154;28;20382;-88
2022/11/02 13:03:22;;;;;;;7.20;1.88;;;15.80;80.10;;;;;;4990725;28;20038;-86
2022/11/02 13:05:56;;;;;;;7.57;2.67;;;15.70;80.50;;;;;;4907312;28;20049;-92
2022/11/02 13:08:31;;;;;;;11.25;2.33;;;15.60;81.80;;;;;;4959059;28;20126;-88
2022/11/02 13:11:00;;;;;;;7.75;1.75;;;15.70;82.50;;;;;;4985236;28;20034;-88
2022/11/02 13:13:39;;;;;;;13.45;1.85;;;15.80;83.00;;;;;;4995838;28;20026;-89
2022/11/02 13:16:08;;;;;;;7.20;1.92;;;15.80;82.40;;;;;;4977146;28;20061;-87
2022/11/02 13:18:49;;;;;;;6.45;1.67;;;15.90;82.30;;;;;;4990465;28;20031;-86
2022/11/02 13:21:20;;;;;;;11.20;2.72;;;16.00;82.00;;;;;;4972179;28;20097;-91
2022/11/02 13:23:50;;;;;;;2.60;1.20;;;16.00;81.70;;;;;;4987650;28;20054;-90
2022/11/02 13:26:24;;;;;;;6.68;1.83;;;15.90;81.30;;;;;;4978296;28;20041;-90
2022/11/02 13:28:54;;;;;;;7.53;2.00;;;15.90;81.10;;;;;;4987128;28;20046;-91
2022/11/02 13:31:45;;;;;;;6.35;1.70;;;15.80;81.30;;;;;;4956069;29;20047;-89
2022/11/02 13:34:16;;;;;;;6.07;1.80;;;15.90;81.20;;;;;;4939269;29;20098;-89
2022/11/02 13:36:43;;;;;;;7.72;1.98;;;15.90;81.20;;;;;;4938951;29;20047;-89
2022/11/02 13:39:25;;;;;;;15.27;2.15;;;16.00;80.80;;;;;;4938537;29;20104;-89
2022/11/02 13:41:59;;;;;;;8.52;1.77;;;16.10;80.80;;;;;;4938909;29;20034;-88
2022/11/02 13:44:46;;;;;;;6.05;1.33;;;16.10;80.40;;;;;;4955890;28;20033;-88
2022/11/02 13:47:12;;;;;;;7.45;1.77;;;16.30;80.00;;;;;;4956927;29;20371;-90
2022/11/02 13:49:41;;;;;;;11.52;2.22;;;16.30;80.60;;;;;;4939564;29;20046;-89
2022/11/02 13:52:30;;;;;;;7.30;2.25;;;16.30;80.30;;;;;;4957658;28;20042;-89
2022/11/02 13:55:00;;;;;;;7.03;1.58;;;16.30;79.70;;;;;;4964298;28;20027;-89
2022/11/02 13:57:34;;;;;;;2.92;1.52;;;16.40;79.80;;;;;;4940134;29;20556;-88
2022/11/02 14:00:02;;;;;;;6.38;2.10;;;16.30;79.60;;;;;;4968245;28;20037;-91
2022/11/02 14:02:32;;;;;;;12.80;2.42;;;16.40;79.60;;;;;;4959073;28;20034;-92
2022/11/02 14:04:58;;;;;;;;;;;16.30;79.20;;;;;;4960344;28;20094;-92
2022/11/02 14:07:38;;;;;;;9.85;1.83;;;16.40;79.30;;;;;;4959841;28;19909;-91
2022/11/02 14:10:13;;;;;;;7.93;1.80;;;16.50;79.60;;;;;;4976176;28;20430;-91
2022/11/02 14:12:47;;;;;;;6.03;1.42;;;16.50;79.20;;;;;;4978679;28;20493;-92
2022/11/02 14:15:12;;;;;;;14.20;2.17;;;16.60;78.90;;;;;;4964598;28;20038;-91
2022/11/02 14:17:53;;;;;;;8.32;2.17;;;16.60;78.80;;;;;;4959210;28;20027;-91
2022/11/02 14:20:41;;;;;;;7.63;1.88;;;16.60;78.90;;;;;;4957679;28;20054;-90
2022/11/02 14:23:10;;;;;;;6.22;1.85;;;16.60;78.70;;;;;;4939639;29;20023;-91
2022/11/02 14:25:44;;;;;;;4.88;1.25;;;16.60;79.00;;;;;;4940308;29;20452;-89
2022/11/02 14:28:24;;;;;;;8.20;2.35;;;16.50;78.60;;;;;;4940044;29;20036;-91
2022/11/02 14:31:02;;;;;;;8.00;2.03;;;16.50;78.70;;;;;;4947862;28;20076;-91
2022/11/02 14:33:55;;;;;;;12.07;1.60;;;16.50;78.70;;;;;;4958133;28;20045;-90
2022/11/02 14:36:38;;;;;;;9.18;1.67;;;16.50;78.10;;;;;;4940569;29;20031;-92
2022/11/02 14:39:32;;;;;;;8.57;2.10;;;16.50;77.90;;;;;;4955322;29;20036;-89
2022/11/02 14:42:13;;;;;;;10.82;2.92;;;16.50;77.60;;;;;;4956347;29;20023;-90
2022/11/02 14:45:02;;;;;;;8.48;1.80;;;16.50;77.60;;;;;;4940674;29;20034;-93
2022/11/02 14:47:30;;;;;;;10.35;1.92;;;16.50;77.10;;;;;;4957069;28;20537;-90
2022/11/02 14:50:00;;;;;;;8.18;1.92;;;16.60;76.70;;;;;;4943074;29;20066;-90
2022/11/02 14:52:28;;;;;;;9.32;1.65;;;16.50;76.70;;;;;;4944110;28;20050;-91
2022/11/02 14:55:19;;;;;;;7.07;1.55;;;16.60;76.80;;;;;;4943253;29;20512;-89
2022/11/02 14:57:54;;;;;;;15.98;3.08;;;16.50;77.30;;;;;;4958945;28;20405;-91
2022/11/02 15:00:28;;;;;;;7.28;1.73;;;16.50;77.20;;;;;;4977086;28;20140;-92
2022/11/02 15:02:54;;;;;;;9.48;1.75;;;16.50;77.00;;;;;;4982286;28;20049;-91
2022/11/02 15:05:29;;;;;;;9.57;1.58;;;16.50;77.00;;;;;;4963032;28;20035;-90
2022/11/02 15:07:58;;;;;;;11.57;1.70;;;16.50;77.20;;;;;;4943957;29;20031;-90
2022/11/02 15:10:30;;;;;;;9.10;1.77;;;16.50;77.10;;;;;;4945770;28;20038;-90
2022/11/02 15:13:18;;;;;;;6.72;1.65;;;16.50;77.30;;;;;;4979747;28;20086;-93
2022/11/02 15:15:44;;;;;;;17.77;2.08;;;16.40;76.90;;;;;;4959427;29;20035;-93
2022/11/02 15:18:34;;;;;;;6.00;1.80;;;16.40;77.20;;;;;;4944144;29;20058;-91
2022/11/02 15:21:09;;;;;;;;;;;16.40;77.20;;;;;;4937043;28;20520;-91
2022/11/02 15:24:01;;;;;;;6.68;1.73;;;16.40;76.90;;;;;;4960882;29;20278;-89
2022/11/02 15:26:48;;;;;;;14.05;2.85;;;16.40;76.80;;;;;;4944352;29;20031;-92
2022/11/02 15:29:21;;;;;;;8.70;2.00;;;16.40;76.90;;;;;;4953548;29;20038;-91
2022/11/02 15:31:53;;;;;;;9.00;1.95;;;16.40;76.90;;;;;;4971418;28;20082;-93
2022/11/02 15:34:21;;;;;;;11.68;2.10;;;16.40;76.40;;;;;;4962644;28;20477;-89
2022/11/02 15:36:47;;;;;;;8.50;2.15;;;16.30;76.40;;;;;;4963409;28;20058;-92
2022/11/02 15:39:16;;;;;;;7.97;1.70;;;16.30;76.20;;;;;;4962267;28;20031;-90
2022/11/02 15:41:50;;;;;;;8.68;2.03;;;16.30;76.60;;;;;;4962632;28;20019;-91
2022/11/02 15:44:37;;;;;;;9.13;1.52;;;16.30;76.30;;;;;;4970523;28;20045;-91
2022/11/02 15:47:33;;;;;;;6.57;2.20;;;16.30;76.60;;;;;;4982041;28;20030;-91
2022/11/02 15:50:28;;;;;;;11.38;2.13;;;16.30;76.80;;;;;;4981569;28;20041;-90
2022/11/02 15:53:18;;;;;;;11.00;2.60;;;16.30;77.00;;;;;;4979905;28;20461;-90
2022/11/02 15:55:52;;;;;;;8.55;2.28;;;16.20;77.50;;;;;;4962475;28;20482;-91
2022/11/02 15:58:18;;;;;;;9.80;2.10;;;16.20;78.00;;;;;;4962411;28;20034;-91
2022/11/02 16:01:38;;;;;;;6.35;2.03;;;16.20;78.50;;;;;;4993189;28;20031;-92
2022/11/02 16:04:06;;;;;;;5.93;2.28;;;16.20;78.70;;;;;;4920198;29;20039;-92
2022/11/02 16:06:41;;;;;;;10.95;2.58;;;16.30;78.90;;;;;;4966820;28;20045;-92
2022/11/02 16:09:29;;;;;;;14.18;2.85;;;16.30;79.30;;;;;;4981875;28;20041;-92
2022/11/02 16:12:16;;;;;;;10.02;2.55;;;16.30;79.60;;;;;;4998871;28;20495;-92
2022/11/02 16:14:43;;;;;;;7.93;2.08;;;16.30;80.00;;;;;;4998848;28;20030;-93
2022/11/02 16:17:38;;;;;;;10.13;2.40;;;16.30;79.80;;;;;;4978945;28;20053;-88
2022/11/02 16:20:21;;;;;;;16.08;3.05;;;16.30;79.70;;;;;;4955147;28;20094;-91
2022/11/02 16:22:53;;;;;;;8.95;2.55;;;16.30;79.40;;;;;;4970286;28;20026;-91
2022/11/02 16:25:40;;;;;;;6.35;2.20;;;16.20;78.60;;;;;;4981701;28;20085;-91
2022/11/02 16:28:20;;;;;;;9.90;2.03;;;16.10;78.40;;;;;;4961638;28;20035;-92
2022/11/02 16:30:59;;;;;;;11.90;2.00;;;16.00;78.10;;;;;;4973796;28;20488;-89
2022/11/02 16:33:28;;;;;;;7.65;1.70;;;16.00;77.90;;;;;;4957001;28;20466;-90
2022/11/02 16:35:54;;;;;;;6.10;2.13;;;15.90;78.00;;;;;;4970424;28;20097;-92
2022/11/02 16:38:22;;;;;;;7.78;2.60;;;15.90;77.90;;;;;;4964562;28;20493;-91
2022/11/02 16:40:47;;;;;;;17.13;2.30;;;15.80;77.90;;;;;;4988620;28;20473;-92
2022/11/02 16:43:14;;;;;;;6.30;2.45;;;15.80;78.00;;;;;;4965236;28;20031;-89
2022/11/02 16:45:41;;;;;;;12.13;3.05;;;15.80;78.30;;;;;;4965987;28;20039;-90
2022/11/02 16:48:33;;;;;;;12.35;2.53;;;15.70;78.40;;;;;;4961922;28;20041;-91
2022/11/02 16:51:05;;;;;;;3.28;1.73;;;15.70;78.30;;;;;;4944267;28;20043;-91
2022/11/02 16:53:33;;;;;;;7.10;2.08;;;15.70;78.60;;;;;;4963791;28;20023;-91
2022/11/02 16:56:26;;;;;;;9.05;2.20;;;15.60;78.80;;;;;;4968968;28;20046;-91
2022/11/02 16:59:03;;;;;;;6.55;1.88;;;15.60;78.90;;;;;;4961942;28;20609;-92
2022/11/02 17:01:37;;;;;;;12.65;2.67;;;15.60;79.10;;;;;;4964897;28;20038;-91
2022/11/02 17:04:38;;;;;;;15.20;3.47;;;15.50;79.20;;;;;;4963211;28;20025;-89
2022/11/02 17:07:34;;;;;;;17.30;2.35;;;15.50;79.40;;;;;;4964386;28;20078;-91
2022/11/02 17:10:03;;;;;;;12.68;2.70;;;15.50;79.60;;;;;;4967078;28;20035;-90
2022/11/02 17:12:33;;;;;;;11.00;1.98;;;15.50;79.80;;;;;;4949614;28;20386;-90
2022/11/02 17:15:24;;;;;;;15.02;3.28;;;15.40;80.10;;;;;;4971880;28;20178;-92
2022/11/02 17:18:10;;;;;;;11.15;2.47;;;15.40;80.20;;;;;;4978533;28;20126;-91
2022/11/02 17:21:10;;;;;;;6.28;2.25;;;15.50;80.40;;;;;;4966100;28;20026;-92
2022/11/02 17:23:36;;;;;;;11.45;2.38;;;15.30;80.50;;;;;;4969667;28;20034;-91
2022/11/02 17:26:44;;;;;;;8.70;1.45;;;15.30;80.60;;;;;;4971611;28;20022;-90
2022/11/02 17:29:18;;;;;;;13.32;2.45;;;15.40;80.60;;;;;;4976865;28;20034;-90
2022/11/02 17:31:44;;;;;;;12.52;2.90;;;15.30;80.50;;;;;;4993284;28;20058;-91
2022/11/02 17:34:17;;;;;;;7.40;2.22;;;15.30;80.60;;;;;;4980780;28;20137;-91
2022/11/02 17:36:50;;;;;;;17.42;2.88;;;15.30;80.90;;;;;;4967884;28;20057;-90
2022/11/02 17:39:18;;;;;;;11.70;1.95;;;15.30;81.00;;;;;;4979174;28;20408;-89
2022/11/02 17:44:46;;;;;;;9.93;3.03;;;15.30;81.10;;;;;;4889585;28;20033;-89
2022/11/02 17:47:15;;;;;;;7.90;2.40;;;15.30;81.30;;;;;;4971363;28;20031;-90
2022/11/02 17:49:41;;;;;;;11.50;2.33;;;15.30;81.50;;;;;;4980661;28;20424;-91
2022/11/02 17:52:12;;;;;;;15.55;2.58;;;15.30;81.50;;;;;;4976652;28;20026;-90
2022/11/02 17:54:37;;;;;;;16.52;2.92;;;15.30;81.60;;;;;;4978600;28;20022;-91
2022/11/02 17:57:09;;;;;;;11.13;2.33;;;15.30;81.70;;;;;;4999324;28;21365;-90
2022/11/02 17:59:35;;;;;;;8.45;1.83;;;15.30;81.70;;;;;;4976179;28;20026;-92
2022/11/02 18:02:01;;;;;;;13.52;2.35;;;15.30;81.60;;;;;;4974102;28;20031;-90
2022/11/02 18:04:26;;;;;;;12.95;2.20;;;15.30;81.70;;;;;;4986635;28;20030;-91
2022/11/02 18:06:55;;;;;;;5.22;1.85;;;15.30;81.70;;;;;;4981082;28;20030;-87
2022/11/02 18:09:22;;;;;;;11.50;2.63;;;15.30;81.80;;;;;;4993981;28;20077;-89
2022/11/02 18:12:10;;;;;;;18.17;7.13;;;15.30;81.70;;;;;;4994072;28;20018;-81
2022/11/02 18:14:36;;;;;;;12.13;4.78;;;15.20;81.80;;;;;;4990621;28;20064;-85
2022/11/02 18:17:01;;;;;;;12.95;2.80;;;15.30;81.90;;;;;;4991295;28;20018;-85
2022/11/02 18:19:27;;;;;;;11.20;2.20;;;15.20;82.10;;;;;;4978032;28;20027;-80
2022/11/02 18:21:53;;;;;;;11.43;2.88;;;15.20;82.30;;;;;;4994868;28;20019;-85
2022/11/02 18:24:18;;;;;;;11.95;2.72;;;15.20;82.40;;;;;;4993841;28;20034;-82
2022/11/02 18:26:44;;;;;;;7.00;3.30;;;15.20;82.40;;;;;;4995299;28;20568;-83
2022/11/02 18:29:09;;;;;;;11.25;4.47;;;15.20;82.40;;;;;;4995848;28;20027;-85
2022/11/02 18:31:36;;;;;;;5.20;2.70;;;15.20;82.50;;;;;;4982470;28;20058;-81
2022/11/02 18:34:01;;;;;;;13.00;4.45;;;15.20;82.50;;;;;;4993530;28;20076;-81
2022/11/02 18:36:27;;;;;;;10.93;2.95;;;15.20;82.50;;;;;;4995182;28;20568;-85
2022/11/02 18:38:53;;;;;;;11.50;5.13;;;15.20;82.50;;;;;;4979297;28;20033;-85
2022/11/02 18:41:33;;;;;;;13.90;3.20;;;15.20;82.50;;;;;;4969900;28;20039;-84
2022/11/02 18:44:03;;;;;;;12.93;4.93;;;15.20;82.60;;;;;;4976771;28;20031;-87
2022/11/02 18:46:29;;;;;;;12.43;4.60;;;15.20;82.70;;;;;;4977729;28;20034;-86